Time;durP1;ratioP1;P1;durP2;ratioP2;P2;SDS_P1;SDS_P2;PMS_P1;PMS_P2;Temp;Humidity;BMP_temperature;BMP_pressure;BME280_temperature;BME280_humidity;BME280_pressure;Samples;Min_cycle;Max_cycle;Signal;HPM_P1;HPM_P2
2023/07/03 00:02:04;;;;;;;8.90;4.28;;;;;;;15.78;73.03;100922.34;5044539;28;20056;-68
2023/07/03 00:04:33;;;;;;;10.18;3.58;;;;;;;15.71;73.09;100904.66;5040778;28;20059;-68
2023/07/03 00:06:58;;;;;;;14.45;3.88;;;;;;;15.76;73.42;100921.72;5040859;28;20029;-68
2023/07/03 00:09:24;;;;;;;14.27;4.65;;;;;;;15.68;73.36;100911.28;5041026;28;20120;-68
2023/07/03 00:11:49;;;;;;;11.35;4.07;;;;;;;15.75;73.83;100919.28;5043806;28;20496;-68
2023/07/03 00:14:14;;;;;;;12.52;4.00;;;;;;;15.75;72.91;100919.28;5041404;28;20068;-68
2023/07/03 00:16:40;;;;;;;10.57;3.15;;;;;;;15.70;73.14;100911.91;5040182;28;20064;-68
2023/07/03 00:19:05;;;;;;;13.10;3.78;;;;;;;15.71;73.11;100915.41;5025112;28;20040;-68
2023/07/03 00:21:30;;;;;;;15.07;4.75;;;;;;;15.68;72.93;100921.22;5037569;28;20033;-68
2023/07/03 00:23:56;;;;;;;13.10;4.22;;;;;;;15.72;73.42;100912.50;5044677;28;20061;-68
2023/07/03 00:26:21;;;;;;;12.95;4.20;;;;;;;15.70;73.49;100905.72;5038719;28;20055;-68
2023/07/03 00:28:46;;;;;;;10.63;3.58;;;;;;;15.69;73.18;100909.44;5039961;28;20064;-68
2023/07/03 00:31:12;;;;;;;13.13;3.80;;;;;;;15.66;73.68;100908.00;5016286;28;20112;-68
2023/07/03 00:33:37;;;;;;;16.38;3.65;;;;;;;15.64;73.31;100911.94;5032735;28;20032;-68
2023/07/03 00:36:02;;;;;;;13.88;3.38;;;;;;;15.60;73.94;100913.47;5025434;28;20079;-68
2023/07/03 00:38:28;;;;;;;13.65;4.95;;;;;;;15.57;74.16;100904.00;5021237;28;20049;-68
2023/07/03 00:40:53;;;;;;;13.60;4.68;;;;;;;15.60;74.53;100910.78;5039127;28;20052;-68
2023/07/03 00:43:19;;;;;;;9.98;3.25;;;;;;;15.59;74.91;100904.59;5034641;28;20038;-68
2023/07/03 00:45:45;;;;;;;12.45;3.25;;;;;;;15.56;75.12;100911.25;5024148;28;20064;-68
2023/07/03 00:48:10;;;;;;;9.43;3.03;;;;;;;15.53;75.08;100906.31;5044301;28;20044;-68
2023/07/03 00:50:35;;;;;;;15.00;3.88;;;;;;;15.53;75.31;100905.50;5039156;28;20024;-68
2023/07/03 00:53:04;;;;;;;10.52;4.38;;;;;;;15.52;75.45;100914.59;5040875;28;20025;-68
2023/07/03 00:55:31;;;;;;;13.43;3.40;;;;;;;15.46;75.99;100905.59;5043969;28;20124;-68
2023/07/03 00:57:57;;;;;;;16.38;6.35;;;;;;;15.44;75.59;100910.38;5041738;28;20028;-68
2023/07/03 01:00:25;;;;;;;11.70;4.22;;;;;;;15.45;76.07;100911.19;5033396;28;20037;-68
2023/07/03 01:03:04;;;;;;;11.05;3.72;;;;;;;15.44;76.06;100906.88;5038214;28;20030;-67
2023/07/03 01:05:35;;;;;;;9.40;2.70;;;;;;;15.41;76.33;100894.69;5044084;28;20045;-68
2023/07/03 01:08:00;;;;;;;10.73;4.43;;;;;;;15.37;76.71;100884.63;5043923;28;20017;-68
2023/07/03 01:10:29;;;;;;;12.10;3.47;;;;;;;15.41;76.85;100900.09;5045460;28;20289;-68
2023/07/03 01:13:00;;;;;;;16.10;4.45;;;;;;;15.36;77.35;100891.88;5039341;28;20677;-68
2023/07/03 01:15:30;;;;;;;15.10;3.15;;;;;;;15.36;77.20;100885.69;5031386;28;20095;-67
2023/07/03 01:17:58;;;;;;;10.93;3.67;;;;;;;15.36;77.40;100891.88;5039299;28;20033;-68
2023/07/03 01:20:28;;;;;;;13.88;3.83;;;;;;;15.36;77.60;100891.88;5040419;28;20040;-68
2023/07/03 01:23:04;;;;;;;11.82;4.65;;;;;;;15.37;77.22;100898.06;5037668;28;20063;-68
2023/07/03 01:25:31;;;;;;;9.73;3.42;;;;;;;15.34;78.19;100892.09;5025161;28;20060;-68
2023/07/03 01:27:58;;;;;;;13.25;4.45;;;;;;;15.33;77.73;100898.53;5033221;28;20102;-67
2023/07/03 01:30:25;;;;;;;15.52;4.20;;;;;;;15.27;77.91;100894.06;5007953;28;20403;-68
2023/07/03 01:32:53;;;;;;;8.52;3.47;;;;;;;15.30;77.85;100900.81;5031561;28;20030;-68
2023/07/03 01:35:19;;;;;;;11.98;3.75;;;;;;;15.30;78.60;100895.44;5013041;28;20416;-68
2023/07/03 01:37:47;;;;;;;11.23;3.70;;;;;;;15.25;78.90;100898.84;5037704;28;20024;-68
2023/07/03 01:40:16;;;;;;;15.68;5.55;;;;;;;15.22;79.07;100888.56;5046632;28;20028;-68
2023/07/03 01:42:42;;;;;;;8.45;2.97;;;;;;;15.23;79.47;100890.19;5045989;28;20569;-67
2023/07/03 01:45:09;;;;;;;12.15;3.10;;;;;;;15.22;80.12;100888.56;5044471;28;20040;-68
2023/07/03 01:47:35;;;;;;;13.82;5.10;;;;;;;15.21;79.74;100891.44;5044348;28;20547;-68
2023/07/03 01:50:03;;;;;;;16.20;3.83;;;;;;;15.20;79.70;100884.44;5030949;28;20510;-67
2023/07/03 01:52:39;;;;;;;13.30;4.03;;;;;;;15.22;80.14;100887.72;5044267;28;20028;-67
2023/07/03 01:55:12;;;;;;;15.55;4.63;;;;;;;15.16;80.09;100884.06;5044822;28;20472;-67
2023/07/03 01:58:03;;;;;;;15.98;4.47;;;;;;;15.15;80.23;100882.44;5043556;28;20032;-67
2023/07/03 02:00:50;;;;;;;13.90;4.03;;;;;;;15.16;80.54;100891.31;5046153;28;20038;-68
2023/07/03 02:03:21;;;;;;;13.95;5.35;;;;;;;15.12;81.17;100897.13;5040889;28;20531;-67
2023/07/03 02:05:49;;;;;;;13.93;3.75;;;;;;;15.08;81.61;100887.06;5040006;28;20061;-67
2023/07/03 02:08:17;;;;;;;14.55;4.05;;;;;;;15.09;82.52;100894.06;5042493;28;20074;-68
2023/07/03 02:10:42;;;;;;;15.85;4.88;;;;;;;15.07;82.49;100893.50;5041172;28;20037;-67
2023/07/03 02:13:08;;;;;;;12.43;2.95;;;;;;;15.01;82.80;100889.00;5042494;28;20017;-67
2023/07/03 02:15:35;;;;;;;14.07;3.63;;;;;;;14.99;83.41;100889.25;5040350;28;20033;-67
2023/07/03 02:18:02;;;;;;;12.82;3.80;;;;;;;15.01;83.20;100886.31;5018220;28;20037;-68
2023/07/03 02:20:28;;;;;;;15.20;4.93;;;;;;;14.95;83.45;100876.47;5041914;28;20428;-68
2023/07/03 02:22:53;;;;;;;12.32;4.13;;;;;;;14.96;83.89;100880.78;5041370;28;20028;-68
2023/07/03 02:25:19;;;;;;;17.17;3.83;;;;;;;14.94;84.47;100872.97;5026207;28;20067;-67
2023/07/03 02:27:44;;;;;;;12.75;3.35;;;;;;;14.94;84.26;100880.22;5046595;28;20034;-68
2023/07/03 02:30:11;;;;;;;14.13;4.82;;;;;;;14.93;84.89;100875.88;5040931;28;20040;-67
2023/07/03 02:32:39;;;;;;;12.52;3.38;;;;;;;14.90;85.59;100877.97;5037437;28;20056;-68
2023/07/03 02:35:06;;;;;;;16.90;5.68;;;;;;;14.88;85.21;100871.19;5046858;28;20155;-68
2023/07/03 02:37:32;;;;;;;14.80;3.53;;;;;;;14.89;85.41;100867.47;5044354;28;20029;-68
2023/07/03 02:39:57;;;;;;;17.42;5.10;;;;;;;14.84;85.42;100861.94;5046192;28;20438;-68
2023/07/03 02:42:22;;;;;;;17.30;4.18;;;;;;;14.86;86.57;100866.03;5046055;28;20033;-68
2023/07/03 02:44:48;;;;;;;18.90;4.22;;;;;;;14.79;86.91;100865.28;5047020;28;20462;-68
2023/07/03 02:47:13;;;;;;;17.92;3.33;;;;;;;14.78;87.70;100860.97;5040353;28;20061;-68
2023/07/03 02:49:39;;;;;;;16.38;4.63;;;;;;;14.70;87.61;100855.91;5045829;28;20037;-68
2023/07/03 02:52:04;;;;;;;17.38;4.72;;;;;;;14.66;88.17;100849.34;5027793;28;20030;-68
2023/07/03 02:54:30;;;;;;;16.50;5.10;;;;;;;14.68;88.38;100855.31;5040720;28;20484;-68
2023/07/03 02:56:55;;;;;;;20.40;4.55;;;;;;;14.61;89.11;100850.00;5024206;28;20043;-68
2023/07/03 02:59:21;;;;;;;16.90;4.60;;;;;;;14.57;89.22;100846.13;5017178;28;20033;-68
2023/07/03 03:01:47;;;;;;;17.67;3.15;;;;;;;14.61;89.80;100857.25;5035068;28;20442;-68
2023/07/03 03:04:13;;;;;;;20.05;4.78;;;;;;;14.57;89.96;100846.13;5021322;28;20040;-68
2023/07/03 03:06:38;;;;;;;19.10;4.97;;;;;;;14.51;90.56;100854.22;5038298;28;20384;-68
2023/07/03 03:09:05;;;;;;;22.67;5.53;;;;;;;14.47;90.68;100860.03;5036399;28;20029;-68
2023/07/03 03:11:30;;;;;;;20.33;6.20;;;;;;;14.43;91.41;100856.13;5049308;28;20032;-68
2023/07/03 03:13:55;;;;;;;13.25;3.95;;;;;;;14.37;92.01;100843.63;5041161;28;20051;-68
2023/07/03 03:16:21;;;;;;;15.45;4.75;;;;;;;14.31;92.08;100838.34;5043772;28;20036;-68
2023/07/03 03:18:47;;;;;;;16.65;3.75;;;;;;;14.34;92.51;100849.44;5043162;28;20033;-68
2023/07/03 03:21:15;;;;;;;16.20;4.65;;;;;;;14.29;92.99;100846.59;5041379;28;20044;-68
2023/07/03 03:23:40;;;;;;;24.08;5.90;;;;;;;14.22;93.57;100843.97;5039441;28;20029;-68
2023/07/03 03:26:06;;;;;;;10.45;3.35;;;;;;;14.21;94.06;100850.38;5022212;28;20037;-68
2023/07/03 03:28:32;;;;;;;19.20;4.63;;;;;;;14.19;94.48;100851.63;5019883;28;20418;-68
2023/07/03 03:30:57;;;;;;;15.63;4.93;;;;;;;14.11;94.88;100841.19;5028960;28;20029;-68
2023/07/03 03:33:22;;;;;;;12.35;3.97;;;;;;;14.13;95.62;100850.66;5047530;28;20119;-68
2023/07/03 03:35:48;;;;;;;20.58;4.28;;;;;;;14.14;95.84;100854.16;5035576;28;20109;-68
2023/07/03 03:38:13;;;;;;;20.55;5.35;;;;;;;14.13;96.88;100852.53;5036357;28;20488;-68
2023/07/03 03:40:38;;;;;;;17.77;4.80;;;;;;;14.16;96.75;100854.78;5024792;28;20036;-68
2023/07/03 03:43:05;;;;;;;17.13;5.65;;;;;;;14.15;97.24;100848.59;5036416;28;20389;-68
2023/07/03 03:45:30;;;;;;;15.77;4.35;;;;;;;14.16;97.50;100844.84;5046464;28;20041;-68
2023/07/03 03:47:55;;;;;;;19.83;5.13;;;;;;;14.14;97.79;100838.88;5039442;28;20424;-68
2023/07/03 03:50:21;;;;;;;22.63;5.32;;;;;;;14.20;97.98;100859.47;5049829;28;20483;-68
2023/07/03 03:52:46;;;;;;;19.15;5.15;;;;;;;14.17;98.64;100848.34;5048699;28;20395;-68
2023/07/03 03:55:11;;;;;;;15.45;4.75;;;;;;;14.16;98.93;100844.84;5030942;28;20037;-68
2023/07/03 03:57:37;;;;;;;20.83;6.43;;;;;;;14.16;98.92;100846.72;5036846;28;20365;-68
2023/07/03 04:00:04;;;;;;;15.52;5.05;;;;;;;14.17;99.18;100851.03;5039719;28;20071;-68
2023/07/03 04:02:29;;;;;;;23.42;7.05;;;;;;;14.12;99.58;100849.03;5039570;28;20111;-68
2023/07/03 04:04:54;;;;;;;20.23;6.57;;;;;;;14.15;99.42;100848.59;5047320;28;20128;-68
2023/07/03 04:07:19;;;;;;;19.90;4.82;;;;;;;14.10;99.59;100844.94;5049529;28;20108;-68
2023/07/03 04:09:45;;;;;;;19.73;5.18;;;;;;;14.15;100.00;100855.81;5042934;28;20360;-68
2023/07/03 04:12:10;;;;;;;19.23;5.75;;;;;;;14.16;99.97;100868.19;5045607;28;20021;-68
2023/07/03 04:14:37;;;;;;;21.50;5.57;;;;;;;14.13;100.00;100858.72;5035150;28;20071;-68
2023/07/03 04:17:05;;;;;;;15.90;5.53;;;;;;;14.14;100.00;100859.53;5040019;28;20021;-68
2023/07/03 04:19:30;;;;;;;20.85;4.55;;;;;;;14.15;100.00;100862.00;5046720;28;20514;-68
2023/07/03 04:21:55;;;;;;;16.25;5.03;;;;;;;14.11;100.00;100859.97;5044989;28;20033;-68
2023/07/03 04:24:21;;;;;;;14.10;4.63;;;;;;;14.09;100.00;100860.19;5035004;28;20029;-68
2023/07/03 04:26:46;;;;;;;16.45;5.43;;;;;;;14.10;100.00;100861.84;5022707;28;20032;-68
2023/07/03 04:29:12;;;;;;;19.35;5.20;;;;;;;14.10;100.00;100853.78;5035316;28;20036;-68
2023/07/03 04:31:39;;;;;;;19.83;6.95;;;;;;;14.12;100.00;100851.72;5043841;28;20124;-68
2023/07/03 04:34:05;;;;;;;21.90;4.95;;;;;;;14.15;100.00;100862.00;5044152;28;20228;-68
2023/07/03 04:36:31;;;;;;;19.13;5.68;;;;;;;14.18;100.00;100860.75;5042717;28;20543;-68
2023/07/03 04:38:57;;;;;;;15.75;5.18;;;;;;;14.24;100.00;100862.53;5040858;28;20116;-68
2023/07/03 04:41:29;;;;;;;21.55;4.15;;;;;;;14.26;100.00;100863.13;5036300;28;20044;-68
2023/07/03 04:43:56;;;;;;;;;;;;;;;14.34;100.00;100862.03;5040566;28;20040;-68
2023/07/03 04:46:25;;;;;;;24.25;6.00;;;;;;;14.35;100.00;100864.47;5042969;28;20269;-68
2023/07/03 04:48:59;;;;;;;18.75;5.68;;;;;;;14.38;100.00;100871.25;5037565;28;20031;-68
2023/07/03 04:51:24;;;;;;;18.90;5.18;;;;;;;14.38;100.00;100866.75;5043196;28;20028;-67
2023/07/03 04:53:50;;;;;;;14.63;4.68;;;;;;;14.38;100.00;100876.63;5048964;28;20029;-68
2023/07/03 04:56:15;;;;;;;19.48;5.78;;;;;;;14.35;100.00;100890.50;5048711;28;20503;-67
2023/07/03 04:58:41;;;;;;;24.60;6.35;;;;;;;14.35;100.00;100883.25;5022255;28;20024;-67
2023/07/03 05:01:06;;;;;;;23.88;5.78;;;;;;;14.35;100.00;100890.50;5032923;28;20060;-68
2023/07/03 05:03:32;;;;;;;20.67;5.20;;;;;;;14.33;100.00;100890.72;5037211;28;20150;-68
2023/07/03 05:05:57;;;;;;;17.33;5.25;;;;;;;14.29;100.00;100894.88;5037211;28;20109;-67
2023/07/03 05:08:24;;;;;;;11.20;4.00;;;;;;;14.27;100.00;100886.22;5045298;28;20047;-67
2023/07/03 05:10:51;;;;;;;22.33;4.28;;;;;;;14.27;100.00;100894.28;5047257;28;20434;-67
2023/07/03 05:13:16;;;;;;;20.23;4.95;;;;;;;14.31;100.00;100897.38;5041433;28;20067;-68
2023/07/03 05:15:42;;;;;;;19.45;5.18;;;;;;;14.35;100.00;100895.88;5036794;28;20067;-68
2023/07/03 05:18:07;;;;;;;29.23;8.00;;;;;;;14.38;100.00;100898.09;5046052;28;20032;-68
2023/07/03 05:20:32;;;;;;;14.77;5.10;;;;;;;14.40;100.00;100902.22;5034184;28;20037;-68
2023/07/03 05:22:58;;;;;;;18.05;6.07;;;;;;;14.40;100.00;100899.53;5033586;28;20033;-68
2023/07/03 05:25:23;;;;;;;18.85;6.03;;;;;;;14.45;100.00;100901.56;5038333;28;20044;-67
2023/07/03 05:27:49;;;;;;;15.80;4.82;;;;;;;14.50;100.00;100898.22;5035478;28;20370;-68
2023/07/03 05:30:14;;;;;;;21.90;5.97;;;;;;;14.57;100.00;100899.00;5039060;28;20032;-68
2023/07/03 05:32:40;;;;;;;16.05;5.50;;;;;;;14.62;100.00;100910.72;5032404;28;20033;-68
2023/07/03 05:35:06;;;;;;;14.73;6.43;;;;;;;14.67;100.00;100913.56;5034994;28;20025;-68
2023/07/03 05:37:32;;;;;;;20.50;5.30;;;;;;;14.68;100.00;100899.06;5031446;28;20037;-68
2023/07/03 05:39:58;;;;;;;24.65;5.50;;;;;;;14.74;100.00;100918.84;5021149;28;20044;-68
2023/07/03 05:42:23;;;;;;;23.35;5.25;;;;;;;14.81;100.00;100914.22;5038902;28;20042;-68
2023/07/03 05:44:49;;;;;;;19.75;5.93;;;;;;;14.82;100.00;100917.72;5039183;28;20043;-68
2023/07/03 05:47:15;;;;;;;22.10;6.28;;;;;;;14.86;100.00;100922.44;5039366;28;20053;-68
2023/07/03 05:49:41;;;;;;;26.23;6.72;;;;;;;14.93;100.00;100908.91;5045673;28;20086;-67
2023/07/03 05:52:10;;;;;;;36.15;7.30;;;;;;;15.03;100.00;100913.78;5038630;28;20420;-68
2023/07/03 05:54:35;;;;;;;24.58;6.70;;;;;;;15.10;100.00;100914.53;5043882;28;20033;-68
2023/07/03 05:57:04;;;;;;;24.08;8.45;;;;;;;15.14;99.98;100915.69;5036299;28;20538;-68
2023/07/03 05:59:30;;;;;;;15.57;4.32;;;;;;;15.16;100.00;100915.50;5040038;28;20040;-68
2023/07/03 06:01:56;;;;;;;20.17;5.82;;;;;;;15.12;99.81;100907.06;5042429;28;20514;-68
2023/07/03 06:04:22;;;;;;;24.15;4.70;;;;;;;15.15;100.00;100914.69;5045998;28;20025;-68
2023/07/03 06:06:57;;;;;;;24.13;5.40;;;;;;;15.16;99.88;100921.69;5046651;28;20040;-67
2023/07/03 06:09:24;;;;;;;16.33;4.95;;;;;;;15.16;99.03;100920.88;5044509;28;20092;-68
2023/07/03 06:11:49;;;;;;;18.38;4.25;;;;;;;15.16;98.72;100918.19;5039425;28;20120;-68
2023/07/03 06:14:17;;;;;;;22.92;5.28;;;;;;;15.13;98.85;100922.13;5039675;28;20033;-68
2023/07/03 06:16:44;;;;;;;23.40;6.40;;;;;;;15.09;99.39;100926.28;5034050;28;20021;-68
2023/07/03 06:19:10;;;;;;;23.52;4.88;;;;;;;15.14;100.00;100931.81;5039636;28;20033;-68
2023/07/03 06:21:36;;;;;;;17.83;6.28;;;;;;;15.19;99.92;100929.28;5036686;28;20025;-68
2023/07/03 06:24:01;;;;;;;22.85;4.72;;;;;;;15.19;99.43;100923.91;5038981;28;20029;-67
2023/07/03 06:26:29;;;;;;;11.98;4.28;;;;;;;15.23;99.16;100933.16;5043170;28;20368;-67
2023/07/03 06:28:55;;;;;;;16.30;4.93;;;;;;;15.20;99.22;100932.81;5050961;28;20124;-68
2023/07/03 06:31:20;;;;;;;15.13;6.10;;;;;;;15.18;100.00;100935.72;5051591;28;20444;-68
2023/07/03 06:33:46;;;;;;;18.48;5.97;;;;;;;15.15;99.65;100943.41;5051851;28;20032;-68
2023/07/03 06:36:12;;;;;;;18.92;5.13;;;;;;;15.10;99.27;100939.53;5051903;28;20033;-68
2023/07/03 06:38:37;;;;;;;18.70;4.70;;;;;;;15.05;99.45;100925.13;5051790;28;20086;-68
2023/07/03 06:41:02;;;;;;;22.85;5.22;;;;;;;15.09;100.00;100942.41;5016960;28;20033;-68
2023/07/03 06:43:28;;;;;;;19.02;5.38;;;;;;;15.09;100.00;100931.66;5041823;28;20127;-68
2023/07/03 06:45:53;;;;;;;14.02;5.10;;;;;;;15.06;100.00;100935.66;5032550;28;20036;-69
2023/07/03 06:48:19;;;;;;;20.30;6.78;;;;;;;15.13;100.00;100931.00;5042226;28;20063;-68
2023/07/03 06:50:44;;;;;;;20.98;5.65;;;;;;;15.23;100.00;100941.22;5030433;28;20029;-68
2023/07/03 06:53:09;;;;;;;19.77;5.30;;;;;;;15.34;100.00;100931.59;5044908;28;20086;-68
2023/07/03 06:55:34;;;;;;;24.38;6.85;;;;;;;15.47;100.00;100923.34;5042906;28;20024;-68
2023/07/03 06:58:00;;;;;;;15.70;6.50;;;;;;;15.59;100.00;100925.25;5038841;28;20039;-68
2023/07/03 07:00:26;;;;;;;15.95;3.83;;;;;;;15.63;100.00;100935.34;5021706;28;20036;-68
2023/07/03 07:02:52;;;;;;;21.20;6.15;;;;;;;15.72;100.00;100930.50;5039943;28;20035;-68
2023/07/03 07:05:19;;;;;;;14.93;5.22;;;;;;;15.78;99.07;100935.78;5039925;28;20033;-68
2023/07/03 07:07:45;;;;;;;17.35;5.65;;;;;;;15.78;98.64;100935.78;5039175;28;20026;-68
2023/07/03 07:10:10;;;;;;;26.13;8.15;;;;;;;15.82;97.13;100936.13;5034424;28;20025;-68
2023/07/03 07:12:35;;;;;;;16.27;5.18;;;;;;;15.81;97.17;100929.13;5036361;28;20037;-68
2023/07/03 07:15:01;;;;;;;15.75;4.68;;;;;;;15.76;95.54;100937.88;5040372;28;20021;-69
2023/07/03 07:17:26;;;;;;;14.30;4.13;;;;;;;15.75;96.02;100935.44;5039203;28;20044;-69
2023/07/03 07:19:52;;;;;;;15.32;5.43;;;;;;;15.75;95.91;100938.13;5032510;28;20518;-68
2023/07/03 07:22:17;;;;;;;12.25;4.47;;;;;;;15.73;95.92;100935.63;5048375;28;20475;-68
2023/07/03 07:24:42;;;;;;;22.13;4.15;;;;;;;15.76;95.20;100947.81;5049457;28;20032;-67
2023/07/03 07:27:08;;;;;;;13.75;4.32;;;;;;;15.80;94.68;100953.53;5050110;28;20062;-68
2023/07/03 07:29:34;;;;;;;19.58;5.38;;;;;;;15.84;92.44;100957.44;5032726;28;20499;-68
2023/07/03 07:32:00;;;;;;;20.98;4.97;;;;;;;15.89;92.03;100954.88;5050463;28;20029;-68
2023/07/03 07:34:25;;;;;;;16.98;4.78;;;;;;;15.87;91.62;100952.41;5050418;28;20118;-68
2023/07/03 07:36:51;;;;;;;13.02;5.00;;;;;;;15.92;92.12;100951.72;5049956;28;20665;-68
2023/07/03 07:39:21;;;;;;;14.70;3.65;;;;;;;15.96;92.89;100950.22;5049195;28;20048;-69
2023/07/03 07:41:47;;;;;;;18.65;4.30;;;;;;;16.11;91.68;100950.63;5049886;28;20037;-67
2023/07/03 07:44:13;;;;;;;18.80;4.65;;;;;;;16.25;91.29;100953.91;5050318;28;20040;-67
2023/07/03 07:46:38;;;;;;;24.08;4.65;;;;;;;16.36;90.26;100952.28;5049905;28;20057;-67
2023/07/03 07:49:04;;;;;;;17.27;4.85;;;;;;;16.49;90.15;100959.31;5049978;28;20060;-67
2023/07/03 07:51:30;;;;;;;15.48;4.65;;;;;;;16.64;88.09;100959.69;5031579;28;20037;-67
2023/07/03 07:53:56;;;;;;;15.43;4.38;;;;;;;16.84;88.04;100960.16;5050051;28;20033;-67
2023/07/03 07:56:23;;;;;;;17.63;5.32;;;;;;;17.03;86.79;100958.16;5049933;28;20074;-68
2023/07/03 07:58:49;;;;;;;21.98;6.65;;;;;;;17.33;85.84;100959.03;5033323;28;20492;-68
2023/07/03 08:01:14;;;;;;;16.52;5.50;;;;;;;17.49;84.51;100961.78;5030029;28;20060;-68
2023/07/03 08:03:41;;;;;;;19.52;5.30;;;;;;;17.55;82.27;100956.47;5012677;28;20033;-68
2023/07/03 08:06:08;;;;;;;14.75;4.15;;;;;;;17.60;80.45;100954.69;5030429;28;20040;-68
2023/07/03 08:08:34;;;;;;;14.15;4.25;;;;;;;17.44;78.90;100945.50;5013318;28;20595;-68
2023/07/03 08:11:02;;;;;;;25.67;5.88;;;;;;;17.39;79.14;100964.25;5030961;28;20076;-67
2023/07/03 08:13:30;;;;;;;16.25;4.72;;;;;;;17.24;78.70;100969.38;5030846;28;20484;-68
2023/07/03 08:15:55;;;;;;;12.60;3.72;;;;;;;17.16;81.02;100969.72;5030807;28;20025;-68
2023/07/03 08:18:21;;;;;;;13.02;2.95;;;;;;;17.13;81.75;100962.09;5030779;28;20034;-68
2023/07/03 08:20:48;;;;;;;19.00;4.65;;;;;;;17.11;79.66;100966.91;5030563;28;20037;-68
2023/07/03 08:23:14;;;;;;;14.65;3.72;;;;;;;17.07;80.06;100970.09;5030703;28;20033;-68
2023/07/03 08:25:41;;;;;;;13.07;3.88;;;;;;;17.00;79.34;100963.19;5030678;28;20083;-68
2023/07/03 08:28:07;;;;;;;14.68;3.97;;;;;;;17.04;79.80;100964.34;5030625;28;20114;-68
2023/07/03 08:30:32;;;;;;;13.55;4.20;;;;;;;17.10;78.92;100974.19;5030539;28;20120;-68
2023/07/03 08:32:57;;;;;;;14.13;3.75;;;;;;;17.15;78.58;100976.16;5030672;28;20026;-68
2023/07/03 08:35:23;;;;;;;13.48;3.97;;;;;;;17.19;78.49;100975.47;5030312;28;20484;-68
2023/07/03 08:37:48;;;;;;;15.60;3.55;;;;;;;17.18;77.69;100973.81;5030511;28;20027;-68
2023/07/03 08:40:21;;;;;;;14.35;4.25;;;;;;;17.28;76.79;100982.13;5030560;28;20055;-68
2023/07/03 08:42:57;;;;;;;14.98;4.10;;;;;;;17.30;74.84;100984.59;5030330;28;20033;-68
2023/07/03 08:45:31;;;;;;;14.88;4.68;;;;;;;17.24;74.29;100983.66;5030368;28;20033;-68
2023/07/03 08:47:59;;;;;;;12.40;3.30;;;;;;;17.25;74.32;100993.38;5030357;28;20124;-68
2023/07/03 08:50:25;;;;;;;15.27;3.85;;;;;;;17.30;74.31;100996.19;5029832;28;20045;-69
2023/07/03 08:52:56;;;;;;;9.43;3.53;;;;;;;17.36;75.77;100997.09;5030167;28;20033;-68
2023/07/03 08:55:27;;;;;;;10.02;4.10;;;;;;;17.47;75.06;101001.63;5030411;28;20025;-68
2023/07/03 08:57:52;;;;;;;14.00;4.32;;;;;;;17.52;73.91;100999.03;5030086;28;20037;-68
2023/07/03 09:00:19;;;;;;;16.55;4.10;;;;;;;17.58;73.52;101005.38;5029880;28;20044;-68
2023/07/03 09:02:54;;;;;;;8.40;2.92;;;;;;;17.59;73.10;101011.59;5029953;28;20035;-68
2023/07/03 09:05:38;;;;;;;14.75;4.50;;;;;;;17.83;72.42;100996.97;5030038;28;20120;-68
2023/07/03 09:08:07;;;;;;;11.93;3.20;;;;;;;18.10;73.11;100993.69;5030093;28;20109;-68
2023/07/03 09:10:48;;;;;;;10.20;3.47;;;;;;;18.18;71.94;100999.53;5034398;28;20174;-68
2023/07/03 09:13:20;;;;;;;14.60;3.38;;;;;;;18.33;72.28;101008.94;5049117;28;20032;-68
2023/07/03 09:15:51;;;;;;;7.55;3.50;;;;;;;18.28;67.90;101006.13;5048722;28;20036;-68
2023/07/03 09:18:22;;;;;;;9.98;4.18;;;;;;;18.40;67.33;101006.91;5048923;28;20492;-68
2023/07/03 09:20:48;;;;;;;10.75;3.92;;;;;;;18.52;64.99;101002.25;5048829;28;20457;-68
2023/07/03 09:23:20;;;;;;;15.30;3.50;;;;;;;18.51;65.74;101010.56;5030910;28;20060;-68
2023/07/03 09:25:52;;;;;;;9.35;3.67;;;;;;;18.22;63.30;101010.63;5029359;28;20071;-68
2023/07/03 09:28:18;;;;;;;10.00;4.30;;;;;;;17.89;66.30;101005.97;5029314;28;20029;-68
2023/07/03 09:30:43;;;;;;;13.57;3.53;;;;;;;17.73;68.04;101010.25;5029280;28;20040;-69
2023/07/03 09:33:09;;;;;;;9.88;4.55;;;;;;;17.65;67.03;101008.75;5029723;28;20029;-68
2023/07/03 09:35:36;;;;;;;11.70;3.80;;;;;;;17.56;67.17;101012.06;5011605;28;20037;-68
2023/07/03 09:38:05;;;;;;;9.80;2.85;;;;;;;17.54;68.25;101012.31;5029656;28;20473;-68
2023/07/03 09:40:37;;;;;;;15.32;5.20;;;;;;;17.49;68.95;101004.91;5029448;28;20120;-68
2023/07/03 09:43:03;;;;;;;10.10;3.50;;;;;;;17.49;70.63;101015.72;5029558;28;20472;-68
2023/07/03 09:45:33;;;;;;;14.73;3.85;;;;;;;17.60;71.24;101011.34;5029319;28;20526;-69
2023/07/03 09:48:01;;;;;;;18.35;4.97;;;;;;;17.65;69.88;101000.66;5029222;28;20132;-68
2023/07/03 09:50:28;;;;;;;15.07;3.83;;;;;;;17.68;70.03;100999.34;5029325;28;20543;-68
2023/07/03 09:52:56;;;;;;;16.85;4.45;;;;;;;17.65;71.00;101008.75;5029469;28;20116;-68
2023/07/03 09:55:22;;;;;;;11.85;3.95;;;;;;;17.64;71.80;101009.00;5029265;28;20029;-68
2023/07/03 09:57:48;;;;;;;12.57;4.70;;;;;;;17.57;71.99;101011.00;5029462;28;20495;-69
2023/07/03 10:00:20;;;;;;;12.27;3.67;;;;;;;17.52;71.37;101011.72;5029268;28;20029;-68
2023/07/03 10:02:50;;;;;;;16.38;5.68;;;;;;;17.58;71.56;101015.31;5030368;28;20025;-68
2023/07/03 10:05:18;;;;;;;11.48;4.75;;;;;;;17.65;71.43;101005.22;5033321;28;20029;-68
2023/07/03 10:07:46;;;;;;;11.02;4.03;;;;;;;17.76;71.44;101012.44;5033392;28;20037;-68
2023/07/03 10:10:16;;;;;;;22.08;5.55;;;;;;;17.87;70.72;101016.22;5033107;28;20029;-68
2023/07/03 10:12:52;;;;;;;16.23;4.68;;;;;;;18.11;70.93;101017.75;5033329;28;20018;-69
2023/07/03 10:15:25;;;;;;;10.57;3.55;;;;;;;18.47;71.05;101020.22;5033027;28;20527;-68
2023/07/03 10:17:55;;;;;;;12.88;5.18;;;;;;;18.60;68.58;101015.34;5033215;28;20033;-69
2023/07/03 10:20:35;;;;;;;11.55;4.40;;;;;;;18.90;69.69;101025.00;5032862;28;20036;-68
2023/07/03 10:23:04;;;;;;;15.25;4.97;;;;;;;19.20;67.52;101021.91;5051798;28;20064;-69
2023/07/03 10:25:41;;;;;;;13.77;5.22;;;;;;;19.42;67.63;101019.22;5034063;28;20155;-69
2023/07/03 10:28:12;;;;;;;15.63;4.53;;;;;;;19.37;66.27;101032.66;5051865;28;20055;-68
2023/07/03 10:30:42;;;;;;;13.27;4.70;;;;;;;19.24;67.99;101030.34;5051987;28;20040;-69
2023/07/03 10:33:18;;;;;;;17.65;6.13;;;;;;;18.97;66.92;101025.66;5051532;28;20108;-69
2023/07/03 10:35:49;;;;;;;10.98;5.05;;;;;;;18.75;67.83;101022.06;5051546;28;20111;-69
2023/07/03 10:38:39;;;;;;;14.38;4.70;;;;;;;18.71;68.78;101034.41;5051770;28;20025;-68
2023/07/03 10:41:12;;;;;;;15.27;4.70;;;;;;;18.49;68.95;101023.50;5051364;28;20060;-68
2023/07/03 10:43:44;;;;;;;10.93;4.20;;;;;;;18.47;67.70;101014.81;5051656;28;20054;-68
2023/07/03 10:46:37;;;;;;;12.70;4.43;;;;;;;18.44;68.67;101010.72;5051184;28;20492;-68
2023/07/03 10:49:07;;;;;;;10.88;3.88;;;;;;;18.91;69.65;101004.19;5032779;28;20076;-68
2023/07/03 10:51:50;;;;;;;11.85;4.68;;;;;;;19.37;67.43;101002.91;5032142;28;20048;-68
2023/07/03 10:54:45;;;;;;;12.30;4.63;;;;;;;19.69;65.32;101004.94;5032011;28;20064;-68
2023/07/03 10:57:17;;;;;;;11.82;4.30;;;;;;;19.67;60.98;101009.78;5028953;28;20030;-68
2023/07/03 10:59:49;;;;;;;9.65;4.35;;;;;;;19.39;60.83;101005.38;5032127;28;20041;-68
2023/07/03 11:02:57;;;;;;;11.18;4.82;;;;;;;19.27;60.53;101009.00;5031864;28;20033;-68
2023/07/03 11:05:30;;;;;;;8.73;3.90;;;;;;;18.95;59.27;101010.75;5031048;28;20071;-68
2023/07/03 11:08:11;;;;;;;16.77;5.03;;;;;;;18.72;59.69;101012.53;5031751;28;20053;-68
2023/07/03 11:10:44;;;;;;;8.13;3.47;;;;;;;18.72;60.32;101023.34;5050299;28;20039;-68
2023/07/03 11:13:31;;;;;;;12.68;4.53;;;;;;;18.75;59.81;101022.06;5050542;28;20075;-68
2023/07/03 11:16:12;;;;;;;11.80;3.85;;;;;;;18.85;59.71;101010.59;5050793;28;20110;-68
2023/07/03 11:18:57;;;;;;;8.57;2.73;;;;;;;19.00;57.83;101014.34;5032811;28;20155;-68
2023/07/03 11:21:41;;;;;;;6.45;2.72;;;;;;;19.37;57.81;101007.53;5050358;28;20056;-67